Mary Alice — WCX9570 — position and weather

sailwx.info

Track history (hours):
 
Tides and Currents Weather Stations Pressure Air Temp Water Temp Dewpoint Dewpoint Depression Visibility Wind Speed Wind Dir Waves Ship Positions

Mary Alice

Owner: Donjon Marine Co., Inc., HILLSIDE, NJ. More information available from US FCC via Universal Licensing System and Coast Guard Vessel Documentation Center.

Last reported at 2017-Oct-15 23:28 UTC. Time now 2017-Oct-19 11:25 UTC.
Position N 41°16' W 072°10'.

Length 21 m; draft 4.8 m.

Type: Towing. MMSI: 366744020.

Date/timePositionNaut miles runAvg speedWind from/ knotsBaromVisibWave heightAir tempDewpointWater temp
2017-Oct-15 23:28N 41°16' W 072°10'3 6.8
2017-Oct-15 23:00N 41°15' W 072°14'3 6.4
2017-Oct-15 22:30N 41°14' W 072°19'3 6.2
2017-Oct-15 22:00N 41°13' W 072°23'3 6.5
2017-Oct-15 21:30N 41°13' W 072°27'3 6.5
2017-Oct-15 21:00N 41°12' W 072°31'3 7.0
2017-Oct-15 20:31N 41°11' W 072°35'4 7.7
2017-Oct-15 20:00N 41°10' W 072°40'4 7.9
2017-Oct-15 19:30N 41°09' W 072°46'5 7.7
2017-Oct-15 18:51N 41°09' W 072°52'0 0.1
2017-Oct-15 18:01N 41°09' W 072°52'1 3.9
2017-Oct-15 17:41N 41°09' W 072°50'1 5.2
2017-Oct-15 17:28N 41°08' W 072°49'3 6.1
2017-Oct-15 17:00N 41°09' W 072°45'3 6.0
2017-Oct-15 16:30N 41°10' W 072°42'3 5.7
2017-Oct-15 16:00N 41°11' W 072°38'3 5.6
2017-Oct-15 15:30N 41°12' W 072°34'3 5.2
2017-Oct-15 15:00N 41°12' W 072°31'6 5.5
2017-Oct-15 14:00N 41°13' W 072°24'3 5.8
2017-Oct-15 13:30N 41°14' W 072°20'3 6.1
2017-Oct-15 12:58N 41°15' W 072°16'9 1.3
2017-Oct-15 06:14N 41°18' W 072°05'5 2.6
2017-Oct-15 04:24N 41°15' W 072°10'2 5.3
2017-Oct-15 03:56N 41°15' W 072°14'2 5.2
2017-Oct-15 03:30N 41°15' W 072°16'3 6.3
2017-Oct-15 03:00N 41°14' W 072°21'5 9.2
2017-Oct-15 02:30N 41°13' W 072°26'5 9.4
2017-Oct-15 02:00N 41°12' W 072°33'4 8.7
2017-Oct-15 01:30N 41°11' W 072°38'4 8.2
2017-Oct-15 01:00N 41°10' W 072°44'5 2.1
2017-Oct-14 22:38N 41°10' W 072°50'1 8.0
2017-Oct-14 22:29N 41°10' W 072°49'4 8.2
2017-Oct-14 22:00N 41°10' W 072°43'4 8.5
2017-Oct-14 21:30N 41°11' W 072°38'4 8.7
2017-Oct-14 21:00N 41°11' W 072°32'5 9.3
2017-Oct-14 20:30N 41°13' W 072°26'5 9.6
2017-Oct-14 19:59N 41°14' W 072°20'7 0.9
2017-Oct-14 12:12N 41°15' W 072°11'3 8.6
2017-Oct-14 11:53N 41°15' W 072°14'3 8.5
2017-Oct-14 11:30N 41°14' W 072°18'4 8.2
2017-Oct-14 11:00N 41°13' W 072°24'4 7.8
2017-Oct-14 10:30N 41°12' W 072°29'4 7.9
2017-Oct-14 10:00N 41°11' W 072°34'4 7.9
2017-Oct-14 09:30N 41°11' W 072°39'4 7.9
2017-Oct-14 09:00N 41°10' W 072°44'4 1.8
2017-Oct-14 06:54N 41°10' W 072°49'3 7.9
2017-Oct-14 06:30N 41°10' W 072°45'4 7.7
2017-Oct-14 06:00N 41°11' W 072°40'4 7.5
2017-Oct-14 05:30N 41°11' W 072°35'4 7.2
2017-Oct-14 05:00N 41°12' W 072°31'4 7.1
2017-Oct-14 04:30N 41°13' W 072°26'4 7.4
2017-Oct-14 04:00N 41°14' W 072°21'3 6.7
2017-Oct-14 03:29N 41°15' W 072°17'4 0.6
2017-Oct-13 19:56N 41°16' W 072°11'3 6.7
2017-Oct-13 19:30N 41°15' W 072°14'3 6.6
2017-Oct-13 19:00N 41°14' W 072°19'3 5.9
2017-Oct-13 18:30N 41°13' W 072°23'3 5.8
2017-Oct-13 18:00N 41°13' W 072°26'3 6.5
2017-Oct-13 17:30N 41°12' W 072°31'4 7.2
2017-Oct-13 17:00N 41°11' W 072°35'4 7.6
2017-Oct-13 16:30N 41°11' W 072°40'4 7.8
2017-Oct-13 16:00N 41°10' W 072°45'6 4.0
2017-Oct-13 14:34N 41°09' W 072°53'1 4.6
2017-Oct-13 14:27N 41°09' W 072°52'3 6.3
2017-Oct-13 14:00N 41°09' W 072°48'3 6.3
2017-Oct-13 13:30N 41°10' W 072°44'3 6.2
2017-Oct-13 13:00N 41°10' W 072°40'3 6.1
2017-Oct-13 12:31N 41°11' W 072°36'3 5.9
2017-Oct-13 11:59N 41°12' W 072°32'3 5.9
2017-Oct-13 11:30N 41°12' W 072°29'3 6.3
2017-Oct-13 11:00N 41°13' W 072°25'3 6.6
2017-Oct-13 10:30N 41°14' W 072°20'8 0.3
2017-Oct-12 10:01N 41°16' W 072°10'0 7.0
2017-Oct-12 09:59N 41°16' W 072°10'3 6.9
2017-Oct-12 09:29N 41°15' W 072°15'3 6.6
2017-Oct-12 09:00N 41°14' W 072°19'3 6.3
2017-Oct-12 08:30N 41°13' W 072°23'3 5.5
2017-Oct-12 08:00N 41°13' W 072°26'3 5.3
2017-Oct-12 07:30N 41°12' W 072°30'3 5.6
2017-Oct-12 07:00N 41°12' W 072°34'3 5.3
2017-Oct-12 06:30N 41°12' W 072°37'3 5.4
2017-Oct-12 06:00N 41°12' W 072°41'3 5.4
2017-Oct-12 05:28N 41°11' W 072°45'3 5.4
2017-Oct-12 04:59N 41°10' W 072°48'3 1.9
2017-Oct-12 03:10N 41°09' W 072°52'3 6.0
2017-Oct-12 02:45N 41°09' W 072°49'2 6.2
2017-Oct-12 02:30N 41°09' W 072°47'3 6.3
2017-Oct-12 02:00N 41°10' W 072°43'3 6.0
2017-Oct-12 01:30N 41°11' W 072°39'3 5.8
2017-Oct-12 01:00N 41°11' W 072°35'3 5.5
2017-Oct-12 00:30N 41°12' W 072°31'3 5.7
2017-Oct-12 00:00N 41°13' W 072°28'3 6.2
2017-Oct-11 23:30N 41°13' W 072°24'3 6.3
2017-Oct-11 23:00N 41°14' W 072°20'7 0.1
2017-Oct-09 20:28N 41°15' W 072°11'510.2
2017-Oct-09 20:00N 41°14' W 072°17'5 9.9
2017-Oct-09 19:30N 41°13' W 072°23'4 8.9
2017-Oct-09 19:00N 41°11' W 072°29'4 8.9
2017-Oct-09 18:30N 41°10' W 072°34'4 8.4
2017-Oct-09 18:00N 41°09' W 072°40'4 7.9
2017-Oct-09 17:28N 41°09' W 072°45'50 8.2
2017-Oct-09 11:26N 40°50' W 073°46'3 6.0
2017-Oct-09 10:59N 40°48' W 073°49'3 5.9
2017-Oct-09 10:29N 40°48' W 073°53'3 5.8
2017-Oct-09 10:00N 40°47' W 073°56'2 4.2
2017-Oct-09 09:30N 40°45' W 073°58'3 5.2
2017-Oct-09 09:00N 40°42' W 073°59'2 4.4
2017-Oct-09 08:30N 40°41' W 074°01'3 5.7
2017-Oct-09 08:00N 40°40' W 074°04'4 7.3
2017-Oct-09 07:30N 40°39' W 074°09'3 5.8
2017-Oct-09 07:00N 40°41' W 074°08'0 0.0
2017-Oct-09 06:30N 40°41' W 074°08'0 0.0
2017-Oct-09 06:00N 40°41' W 074°08'1 1.0
2017-Oct-09 05:30N 40°42' W 074°09'1 1.2
2017-Oct-09 05:00N 40°41' W 074°08'3 5.6
2017-Oct-09 04:30N 40°39' W 074°07'4 8.7
2017-Oct-09 04:00N 40°41' W 074°02'4 7.7
2017-Oct-09 03:30N 40°43' W 073°58'4 7.0
2017-Oct-09 03:00N 40°47' W 073°56'3 6.4
2017-Oct-09 02:30N 40°48' W 073°52'55 9.1
2017-Oct-08 20:28N 41°08' W 072°45'4 8.9
2017-Oct-08 20:00N 41°09' W 072°40'4 8.6
2017-Oct-08 19:30N 41°10' W 072°34'4 8.2
2017-Oct-08 19:00N 41°11' W 072°29'4 8.8
2017-Oct-08 18:30N 41°12' W 072°23'5 8.9
2017-Oct-08 18:00N 41°14' W 072°18'5 9.5
2017-Oct-08 17:30N 41°15' W 072°12'1 0.1
2017-Oct-08 12:23N 41°15' W 072°11'3 8.2
2017-Oct-08 12:00N 41°14' W 072°15'4 8.8
2017-Oct-08 11:30N 41°13' W 072°20'5 9.3
2017-Oct-08 11:00N 41°12' W 072°26'5 9.1
2017-Oct-08 10:30N 41°11' W 072°32'5 9.7
2017-Oct-08 10:00N 41°10' W 072°38'5 9.6
2017-Oct-08 09:30N 41°09' W 072°45'50 8.4
2017-Oct-08 03:34N 40°50' W 073°46'1 5.0
2017-Oct-08 03:22N 40°49' W 073°47'2 6.3
2017-Oct-08 03:00N 40°48' W 073°50'5 8.1
2017-Oct-08 02:27N 40°47' W 073°55'4 8.4
2017-Oct-08 02:00N 40°44' W 073°58'4 7.6
2017-Oct-08 01:30N 40°41' W 074°01'3 6.4
2017-Oct-08 01:00N 40°39' W 074°05'3 5.4
2017-Oct-08 00:30N 40°39' W 074°08'3 5.3
2017-Oct-08 00:00N 40°41' W 074°08'1 1.3
2017-Oct-07 23:30N 40°42' W 074°08'1 1.2
2017-Oct-07 23:00N 40°42' W 074°09'0 0.0
2017-Oct-07 22:30N 40°42' W 074°09'0 0.0
2017-Oct-07 22:00N 40°42' W 074°09'0 0.0
2017-Oct-07 21:30N 40°42' W 074°09'0 0.0
2017-Oct-07 21:00N 40°42' W 074°09'0 0.0
2017-Oct-07 20:30N 40°42' W 074°09'0 0.0
2017-Oct-07 20:00N 40°42' W 074°09'0 0.0
2017-Oct-07 19:30N 40°42' W 074°09'0 0.0
2017-Oct-07 19:00N 40°42' W 074°09'0 0.0
2017-Oct-07 18:30N 40°42' W 074°09'0 0.2
2017-Oct-07 18:00N 40°42' W 074°09'1 1.7
2017-Oct-07 17:29N 40°41' W 074°08'0 0.0
2017-Oct-07 17:00N 40°41' W 074°08'0 0.1
2017-Oct-07 16:30N 40°41' W 074°08'3 5.6
2017-Oct-07 16:00N 40°39' W 074°10'6 5.0
2017-Oct-07 14:47N 40°33' W 074°14'1 1.7
2017-Oct-07 14:27N 40°33' W 074°14'0 0.0
2017-Oct-07 13:58N 40°33' W 074°14'0 0.0
2017-Oct-07 13:26N 40°33' W 074°14'0 0.0
2017-Oct-07 12:59N 40°33' W 074°14'0 0.4
2017-Oct-07 12:28N 40°33' W 074°14'1 0.1
2017-Oct-07 03:07N 40°34' W 074°13'2 7.7
2017-Oct-07 02:55N 40°36' W 074°12'3 6.7
2017-Oct-07 02:30N 40°38' W 074°12'3 6.5
2017-Oct-07 02:00N 40°39' W 074°07'3 6.8
2017-Oct-07 01:30N 40°40' W 074°04'1 1.9
2017-Oct-07 01:00N 40°41' W 074°04'0 0.1
2017-Oct-07 00:30N 40°41' W 074°04'2 4.3
2017-Oct-07 00:00N 40°39' W 074°05'3 5.5
2017-Oct-06 23:30N 40°39' W 074°09'2 4.1
2017-Oct-06 23:00N 40°41' W 074°08'0 0.4
2017-Oct-06 22:30N 40°41' W 074°09'0 0.0
2017-Oct-06 22:00N 40°41' W 074°09'0 0.1
2017-Oct-06 21:30N 40°41' W 074°09'0 0.1
2017-Oct-06 21:00N 40°41' W 074°09'1 1.5
2017-Oct-06 20:30N 40°41' W 074°08'1 1.8
2017-Oct-06 20:00N 40°42' W 074°09'0 0.0
2017-Oct-06 19:30N 40°42' W 074°09'0 0.0
2017-Oct-06 19:00N 40°42' W 074°09'0 0.2
2017-Oct-06 18:30N 40°42' W 074°09'1 1.6
2017-Oct-06 18:00N 40°41' W 074°08'1 1.7
2017-Oct-06 17:30N 40°42' W 074°09'1 1.2
2017-Oct-06 17:00N 40°42' W 074°08'1 1.4
2017-Oct-06 16:30N 40°41' W 074°08'0 0.0
2017-Oct-06 16:00N 40°41' W 074°08'1 1.7
2017-Oct-06 15:30N 40°42' W 074°09'1 1.3
2017-Oct-06 15:00N 40°41' W 074°08'0 0.0
2017-Oct-06 14:30N 40°41' W 074°08'0 0.0
2017-Oct-06 14:00N 40°41' W 074°08'0 0.1
2017-Oct-06 13:30N 40°41' W 074°08'0 0.0
2017-Oct-06 13:00N 40°41' W 074°08'0 0.0
2017-Oct-06 12:30N 40°41' W 074°08'0 0.0
2017-Oct-06 12:00N 40°41' W 074°08'0 0.0
2017-Oct-06 11:30N 40°41' W 074°08'0 1.0
2017-Oct-06 11:00N 40°41' W 074°08'2 3.5
2017-Oct-06 10:30N 40°39' W 074°09'2 5.0
2017-Oct-06 10:00N 40°39' W 074°05'2 4.2
2017-Oct-06 09:30N 40°41' W 074°04'0 0.6
2017-Oct-06 09:00N 40°41' W 074°04'0 0.0
2017-Oct-06 08:30N 40°41' W 074°04'0 0.0
2017-Oct-06 08:00N 40°41' W 074°04'0 0.0
2017-Oct-06 07:30N 40°41' W 074°04'0 0.0
2017-Oct-06 07:00N 40°41' W 074°04'0 0.0
2017-Oct-06 06:30N 40°41' W 074°04'0 0.0
2017-Oct-06 06:00N 40°41' W 074°04'0 0.0
2017-Oct-06 05:30N 40°41' W 074°04'1 3.0
2017-Oct-06 05:00N 40°40' W 074°04'4 7.5
2017-Oct-06 04:30N 40°39' W 074°09'3 6.3
2017-Oct-06 04:00N 40°42' W 074°08'1 1.2
2017-Oct-06 03:27N 40°42' W 074°09'0 0.0
2017-Oct-06 03:00N 40°42' W 074°09'0 0.0
2017-Oct-06 02:29N 40°42' W 074°09'0 0.0
2017-Oct-06 02:00N 40°42' W 074°09'0 0.0
2017-Oct-06 01:30N 40°42' W 074°09'0 0.0
2017-Oct-06 01:00N 40°42' W 074°09'0 0.0
2017-Oct-06 00:30N 40°42' W 074°09'0 0.0
2017-Oct-06 00:00N 40°42' W 074°09'0 0.0
2017-Oct-05 23:30N 40°42' W 074°09'  
Track history (hours):
 
Tides and Currents Weather Stations Pressure Air Temp Water Temp Dewpoint Dewpoint Depression Visibility Wind Speed Wind Dir Waves Ship Positions

Mary Alice

Owner: Donjon Marine Co., Inc., HILLSIDE, NJ. More information available from US FCC via Universal Licensing System and Coast Guard Vessel Documentation Center.

Last reported at 2017-Oct-15 23:28 UTC. Time now 2017-Oct-19 11:25 UTC.
Position N 41°16' W 072°10'.

Length 21 m; draft 4.8 m.

Type: Towing. MMSI: 366744020.

Date/timePositionNaut miles runAvg speedWind from/ knotsBaromVisibWave heightAir tempDewpointWater temp
2017-Oct-15 23:28N 41°16' W 072°10'3 6.8
2017-Oct-15 23:00N 41°15' W 072°14'3 6.4
2017-Oct-15 22:30N 41°14' W 072°19'3 6.2
2017-Oct-15 22:00N 41°13' W 072°23'3 6.5
2017-Oct-15 21:30N 41°13' W 072°27'3 6.5
2017-Oct-15 21:00N 41°12' W 072°31'3 7.0
2017-Oct-15 20:31N 41°11' W 072°35'4 7.7
2017-Oct-15 20:00N 41°10' W 072°40'4 7.9
2017-Oct-15 19:30N 41°09' W 072°46'5 7.7
2017-Oct-15 18:51N 41°09' W 072°52'0 0.1
2017-Oct-15 18:01N 41°09' W 072°52'1 3.9
2017-Oct-15 17:41N 41°09' W 072°50'1 5.2
2017-Oct-15 17:28N 41°08' W 072°49'3 6.1
2017-Oct-15 17:00N 41°09' W 072°45'3 6.0
2017-Oct-15 16:30N 41°10' W 072°42'3 5.7
2017-Oct-15 16:00N 41°11' W 072°38'3 5.6
2017-Oct-15 15:30N 41°12' W 072°34'3 5.2
2017-Oct-15 15:00N 41°12' W 072°31'6 5.5
2017-Oct-15 14:00N 41°13' W 072°24'3 5.8
2017-Oct-15 13:30N 41°14' W 072°20'3 6.1
2017-Oct-15 12:58N 41°15' W 072°16'9 1.3
2017-Oct-15 06:14N 41°18' W 072°05'5 2.6
2017-Oct-15 04:24N 41°15' W 072°10'2 5.3
2017-Oct-15 03:56N 41°15' W 072°14'2 5.2
2017-Oct-15 03:30N 41°15' W 072°16'3 6.3
2017-Oct-15 03:00N 41°14' W 072°21'5 9.2
2017-Oct-15 02:30N 41°13' W 072°26'5 9.4
2017-Oct-15 02:00N 41°12' W 072°33'4 8.7
2017-Oct-15 01:30N 41°11' W 072°38'4 8.2
2017-Oct-15 01:00N 41°10' W 072°44'5 2.1
2017-Oct-14 22:38N 41°10' W 072°50'1 8.0
2017-Oct-14 22:29N 41°10' W 072°49'4 8.2
2017-Oct-14 22:00N 41°10' W 072°43'4 8.5
2017-Oct-14 21:30N 41°11' W 072°38'4 8.7
2017-Oct-14 21:00N 41°11' W 072°32'5 9.3
2017-Oct-14 20:30N 41°13' W 072°26'5 9.6
2017-Oct-14 19:59N 41°14' W 072°20'7 0.9
2017-Oct-14 12:12N 41°15' W 072°11'3 8.6
2017-Oct-14 11:53N 41°15' W 072°14'3 8.5
2017-Oct-14 11:30N 41°14' W 072°18'4 8.2
2017-Oct-14 11:00N 41°13' W 072°24'4 7.8
2017-Oct-14 10:30N 41°12' W 072°29'4 7.9
2017-Oct-14 10:00N 41°11' W 072°34'4 7.9
2017-Oct-14 09:30N 41°11' W 072°39'4 7.9
2017-Oct-14 09:00N 41°10' W 072°44'4 1.8
2017-Oct-14 06:54N 41°10' W 072°49'3 7.9
2017-Oct-14 06:30N 41°10' W 072°45'4 7.7
2017-Oct-14 06:00N 41°11' W 072°40'4 7.5
2017-Oct-14 05:30N 41°11' W 072°35'4 7.2
2017-Oct-14 05:00N 41°12' W 072°31'4 7.1
2017-Oct-14 04:30N 41°13' W 072°26'4 7.4
2017-Oct-14 04:00N 41°14' W 072°21'3 6.7
2017-Oct-14 03:29N 41°15' W 072°17'4 0.6
2017-Oct-13 19:56N 41°16' W 072°11'3 6.7
2017-Oct-13 19:30N 41°15' W 072°14'3 6.6
2017-Oct-13 19:00N 41°14' W 072°19'3 5.9
2017-Oct-13 18:30N 41°13' W 072°23'3 5.8
2017-Oct-13 18:00N 41°13' W 072°26'3 6.5
2017-Oct-13 17:30N 41°12' W 072°31'4 7.2
2017-Oct-13 17:00N 41°11' W 072°35'4 7.6
2017-Oct-13 16:30N 41°11' W 072°40'4 7.8
2017-Oct-13 16:00N 41°10' W 072°45'6 4.0
2017-Oct-13 14:34N 41°09' W 072°53'1 4.6
2017-Oct-13 14:27N 41°09' W 072°52'3 6.3
2017-Oct-13 14:00N 41°09' W 072°48'3 6.3
2017-Oct-13 13:30N 41°10' W 072°44'3 6.2
2017-Oct-13 13:00N 41°10' W 072°40'3 6.1
2017-Oct-13 12:31N 41°11' W 072°36'3 5.9
2017-Oct-13 11:59N 41°12' W 072°32'3 5.9
2017-Oct-13 11:30N 41°12' W 072°29'3 6.3
2017-Oct-13 11:00N 41°13' W 072°25'3 6.6
2017-Oct-13 10:30N 41°14' W 072°20'8 0.3
2017-Oct-12 10:01N 41°16' W 072°10'0 7.0
2017-Oct-12 09:59N 41°16' W 072°10'3 6.9
2017-Oct-12 09:29N 41°15' W 072°15'3 6.6
2017-Oct-12 09:00N 41°14' W 072°19'3 6.3
2017-Oct-12 08:30N 41°13' W 072°23'3 5.5
2017-Oct-12 08:00N 41°13' W 072°26'3 5.3
2017-Oct-12 07:30N 41°12' W 072°30'3 5.6
2017-Oct-12 07:00N 41°12' W 072°34'3 5.3
2017-Oct-12 06:30N 41°12' W 072°37'3 5.4
2017-Oct-12 06:00N 41°12' W 072°41'3 5.4
2017-Oct-12 05:28N 41°11' W 072°45'3 5.4
2017-Oct-12 04:59N 41°10' W 072°48'3 1.9
2017-Oct-12 03:10N 41°09' W 072°52'3 6.0
2017-Oct-12 02:45N 41°09' W 072°49'2 6.2
2017-Oct-12 02:30N 41°09' W 072°47'3 6.3
2017-Oct-12 02:00N 41°10' W 072°43'3 6.0
2017-Oct-12 01:30N 41°11' W 072°39'3 5.8
2017-Oct-12 01:00N 41°11' W 072°35'3 5.5
2017-Oct-12 00:30N 41°12' W 072°31'3 5.7
2017-Oct-12 00:00N 41°13' W 072°28'3 6.2
2017-Oct-11 23:30N 41°13' W 072°24'3 6.3
2017-Oct-11 23:00N 41°14' W 072°20'7 0.1
2017-Oct-09 20:28N 41°15' W 072°11'510.2
2017-Oct-09 20:00N 41°14' W 072°17'5 9.9
2017-Oct-09 19:30N 41°13' W 072°23'4 8.9
2017-Oct-09 19:00N 41°11' W 072°29'4 8.9
2017-Oct-09 18:30N 41°10' W 072°34'4 8.4
2017-Oct-09 18:00N 41°09' W 072°40'4 7.9
2017-Oct-09 17:28N 41°09' W 072°45'50 8.2
2017-Oct-09 11:26N 40°50' W 073°46'3 6.0
2017-Oct-09 10:59N 40°48' W 073°49'3 5.9
2017-Oct-09 10:29N 40°48' W 073°53'3 5.8
2017-Oct-09 10:00N 40°47' W 073°56'2 4.2
2017-Oct-09 09:30N 40°45' W 073°58'3 5.2
2017-Oct-09 09:00N 40°42' W 073°59'2 4.4
2017-Oct-09 08:30N 40°41' W 074°01'3 5.7
2017-Oct-09 08:00N 40°40' W 074°04'4 7.3
2017-Oct-09 07:30N 40°39' W 074°09'3 5.8
2017-Oct-09 07:00N 40°41' W 074°08'0 0.0
2017-Oct-09 06:30N 40°41' W 074°08'0 0.0
2017-Oct-09 06:00N 40°41' W 074°08'1 1.0
2017-Oct-09 05:30N 40°42' W 074°09'1 1.2
2017-Oct-09 05:00N 40°41' W 074°08'3 5.6
2017-Oct-09 04:30N 40°39' W 074°07'4 8.7
2017-Oct-09 04:00N 40°41' W 074°02'4 7.7
2017-Oct-09 03:30N 40°43' W 073°58'4 7.0
2017-Oct-09 03:00N 40°47' W 073°56'3 6.4
2017-Oct-09 02:30N 40°48' W 073°52'55 9.1
2017-Oct-08 20:28N 41°08' W 072°45'4 8.9
2017-Oct-08 20:00N 41°09' W 072°40'4 8.6
2017-Oct-08 19:30N 41°10' W 072°34'4 8.2
2017-Oct-08 19:00N 41°11' W 072°29'4 8.8
2017-Oct-08 18:30N 41°12' W 072°23'5 8.9
2017-Oct-08 18:00N 41°14' W 072°18'5 9.5
2017-Oct-08 17:30N 41°15' W 072°12'1 0.1
2017-Oct-08 12:23N 41°15' W 072°11'3 8.2
2017-Oct-08 12:00N 41°14' W 072°15'4 8.8
2017-Oct-08 11:30N 41°13' W 072°20'5 9.3
2017-Oct-08 11:00N 41°12' W 072°26'5 9.1
2017-Oct-08 10:30N 41°11' W 072°32'5 9.7
2017-Oct-08 10:00N 41°10' W 072°38'5 9.6
2017-Oct-08 09:30N 41°09' W 072°45'50 8.4
2017-Oct-08 03:34N 40°50' W 073°46'1 5.0
2017-Oct-08 03:22N 40°49' W 073°47'2 6.3
2017-Oct-08 03:00N 40°48' W 073°50'5 8.1
2017-Oct-08 02:27N 40°47' W 073°55'4 8.4
2017-Oct-08 02:00N 40°44' W 073°58'4 7.6
2017-Oct-08 01:30N 40°41' W 074°01'3 6.4
2017-Oct-08 01:00N 40°39' W 074°05'3 5.4
2017-Oct-08 00:30N 40°39' W 074°08'3 5.3
2017-Oct-08 00:00N 40°41' W 074°08'1 1.3
2017-Oct-07 23:30N 40°42' W 074°08'1 1.2
2017-Oct-07 23:00N 40°42' W 074°09'0 0.0
2017-Oct-07 22:30N 40°42' W 074°09'0 0.0
2017-Oct-07 22:00N 40°42' W 074°09'0 0.0
2017-Oct-07 21:30N 40°42' W 074°09'0 0.0
2017-Oct-07 21:00N 40°42' W 074°09'0 0.0
2017-Oct-07 20:30N 40°42' W 074°09'0 0.0
2017-Oct-07 20:00N 40°42' W 074°09'0 0.0
2017-Oct-07 19:30N 40°42' W 074°09'0 0.0
2017-Oct-07 19:00N 40°42' W 074°09'0 0.0
2017-Oct-07 18:30N 40°42' W 074°09'0 0.2
2017-Oct-07 18:00N 40°42' W 074°09'1 1.7
2017-Oct-07 17:29N 40°41' W 074°08'0 0.0
2017-Oct-07 17:00N 40°41' W 074°08'0 0.1
2017-Oct-07 16:30N 40°41' W 074°08'3 5.6
2017-Oct-07 16:00N 40°39' W 074°10'6 5.0
2017-Oct-07 14:47N 40°33' W 074°14'1 1.7
2017-Oct-07 14:27N 40°33' W 074°14'0 0.0
2017-Oct-07 13:58N 40°33' W 074°14'0 0.0
2017-Oct-07 13:26N 40°33' W 074°14'0 0.0
2017-Oct-07 12:59N 40°33' W 074°14'0 0.4
2017-Oct-07 12:28N 40°33' W 074°14'1 0.1
2017-Oct-07 03:07N 40°34' W 074°13'2 7.7
2017-Oct-07 02:55N 40°36' W 074°12'3 6.7
2017-Oct-07 02:30N 40°38' W 074°12'3 6.5
2017-Oct-07 02:00N 40°39' W 074°07'3 6.8
2017-Oct-07 01:30N 40°40' W 074°04'1 1.9
2017-Oct-07 01:00N 40°41' W 074°04'0 0.1
2017-Oct-07 00:30N 40°41' W 074°04'2 4.3
2017-Oct-07 00:00N 40°39' W 074°05'3 5.5
2017-Oct-06 23:30N 40°39' W 074°09'2 4.1
2017-Oct-06 23:00N 40°41' W 074°08'0 0.4
2017-Oct-06 22:30N 40°41' W 074°09'0 0.0
2017-Oct-06 22:00N 40°41' W 074°09'0 0.1
2017-Oct-06 21:30N 40°41' W 074°09'0 0.1
2017-Oct-06 21:00N 40°41' W 074°09'1 1.5
2017-Oct-06 20:30N 40°41' W 074°08'1 1.8
2017-Oct-06 20:00N 40°42' W 074°09'0 0.0
2017-Oct-06 19:30N 40°42' W 074°09'0 0.0
2017-Oct-06 19:00N 40°42' W 074°09'0 0.2
2017-Oct-06 18:30N 40°42' W 074°09'1 1.6
2017-Oct-06 18:00N 40°41' W 074°08'1 1.7
2017-Oct-06 17:30N 40°42' W 074°09'1 1.2
2017-Oct-06 17:00N 40°42' W 074°08'1 1.4
2017-Oct-06 16:30N 40°41' W 074°08'0 0.0
2017-Oct-06 16:00N 40°41' W 074°08'1 1.7
2017-Oct-06 15:30N 40°42' W 074°09'1 1.3
2017-Oct-06 15:00N 40°41' W 074°08'0 0.0
2017-Oct-06 14:30N 40°41' W 074°08'0 0.0
2017-Oct-06 14:00N 40°41' W 074°08'0 0.1
2017-Oct-06 13:30N 40°41' W 074°08'0 0.0
2017-Oct-06 13:00N 40°41' W 074°08'0 0.0
2017-Oct-06 12:30N 40°41' W 074°08'0 0.0
2017-Oct-06 12:00N 40°41' W 074°08'0 0.0
2017-Oct-06 11:30N 40°41' W 074°08'0 1.0
2017-Oct-06 11:00N 40°41' W 074°08'2 3.5
2017-Oct-06 10:30N 40°39' W 074°09'2 5.0
2017-Oct-06 10:00N 40°39' W 074°05'2 4.2
2017-Oct-06 09:30N 40°41' W 074°04'0 0.6
2017-Oct-06 09:00N 40°41' W 074°04'0 0.0
2017-Oct-06 08:30N 40°41' W 074°04'0 0.0
2017-Oct-06 08:00N 40°41' W 074°04'0 0.0
2017-Oct-06 07:30N 40°41' W 074°04'0 0.0
2017-Oct-06 07:00N 40°41' W 074°04'0 0.0
2017-Oct-06 06:30N 40°41' W 074°04'0 0.0
2017-Oct-06 06:00N 40°41' W 074°04'0 0.0
2017-Oct-06 05:30N 40°41' W 074°04'1 3.0
2017-Oct-06 05:00N 40°40' W 074°04'4 7.5
2017-Oct-06 04:30N 40°39' W 074°09'3 6.3
2017-Oct-06 04:00N 40°42' W 074°08'1 1.2
2017-Oct-06 03:27N 40°42' W 074°09'0 0.0
2017-Oct-06 03:00N 40°42' W 074°09'0 0.0
2017-Oct-06 02:29N 40°42' W 074°09'0 0.0
2017-Oct-06 02:00N 40°42' W 074°09'0 0.0
2017-Oct-06 01:30N 40°42' W 074°09'0 0.0
2017-Oct-06 01:00N 40°42' W 074°09'0 0.0
2017-Oct-06 00:30N 40°42' W 074°09'0 0.0
2017-Oct-06 00:00N 40°42' W 074°09'0 0.0
2017-Oct-05 23:30N 40°42' W 074°09'  

Dump ship's entire track history